Time;durP1;ratioP1;P1;durP2;ratioP2;P2;SDS_P1;SDS_P2;PMS_P1;PMS_P2;Temp;Humidity;BMP_temperature;BMP_pressure;BME280_temperature;BME280_humidity;BME280_pressure;Samples;Min_cycle;Max_cycle;Signal;HPM_P1;HPM_P2
2022/06/02 00:02:08;;;;;;;;;7.00;6.00;;;;;;;;5124621;27;11622;-81
2022/06/02 00:04:37;;;;;;;;;7.25;7.00;;;;;;;;5124682;27;9557;-81
2022/06/02 00:07:03;;;;;;;;;6.00;6.00;;;;;;;;5143393;27;9733;-81
2022/06/02 00:09:47;;;;;;;;;9.50;9.00;;;;;;;;5143467;27;10771;-80
2022/06/02 00:12:12;;;;;;;;;8.75;8.00;;;;;;;;5143231;27;10601;-81
2022/06/02 00:14:55;;;;;;;;;10.00;10.00;;;;;;;;5143192;27;10338;-81
2022/06/02 00:17:39;;;;;;;;;10.00;10.00;;;;;;;;5124228;27;22870;-80
2022/06/02 00:20:05;;;;;;;;;10.50;9.50;;;;;;;;5143029;27;9822;-80
2022/06/02 00:22:54;;;;;;;;;5.75;5.50;;;;;;;;5143226;27;22019;-79
2022/06/02 00:25:37;;;;;;;;;7.75;7.75;;;;;;;;5094409;27;21455;-79
2022/06/02 00:28:06;;;;;;;;;12.00;8.25;;;;;;;;5124220;27;11818;-80
2022/06/02 00:30:34;;;;;;;;;12.00;8.25;;;;;;;;5142852;27;22585;-80
2022/06/02 00:33:22;;;;;;;;;8.75;8.75;;;;;;;;5142704;27;9698;-80
2022/06/02 00:36:05;;;;;;;;;6.00;5.25;;;;;;;;5129360;27;21880;-80
2022/06/02 00:38:34;;;;;;;;;10.25;8.50;;;;;;;;5143821;27;10368;-80
2022/06/02 00:41:10;;;;;;;;;16.00;16.00;;;;;;;;5143487;27;21834;-80
2022/06/02 00:43:48;;;;;;;;;10.00;10.00;;;;;;;;5141103;27;22136;-81
2022/06/02 00:46:19;;;;;;;;;10.00;10.00;;;;;;;;5142344;27;10116;-80
2022/06/02 00:48:56;;;;;;;;;10.00;10.00;;;;;;;;5143490;27;9936;-80
2022/06/02 00:51:49;;;;;;;;;13.00;11.00;;;;;;;;5142288;27;9903;-81
2022/06/02 00:59:51;;;;;;;;;10.25;10.25;;;;;;;;5142500;27;21446;-81
2022/06/02 01:02:16;;;;;;;;;6.75;6.25;;;;;;;;5123729;27;11220;-80
2022/06/02 01:04:43;;;;;;;;;11.25;10.25;;;;;;;;5123426;27;24354;-80
2022/06/02 01:07:26;;;;;;;;;10.00;9.00;;;;;;;;5141850;27;22480;-80
2022/06/02 01:10:02;;;;;;;;;11.00;10.25;;;;;;;;5141662;27;21816;-80
2022/06/02 01:12:40;;;;;;;;;6.50;6.50;;;;;;;;5141810;27;22049;-79
2022/06/02 01:15:24;;;;;;;;;10.50;8.50;;;;;;;;5141825;27;22761;-80
2022/06/02 01:17:49;;;;;;;;;9.50;7.50;;;;;;;;5142241;27;22833;-80
2022/06/02 01:20:30;;;;;;;;;9.75;9.00;;;;;;;;5141704;27;22764;-80
2022/06/02 01:23:11;;;;;;;;;10.25;8.50;;;;;;;;5142191;27;10881;-81
2022/06/02 01:25:54;;;;;;;;;7.00;7.00;;;;;;;;5142462;27;22633;-80
2022/06/02 01:28:38;;;;;;;;;10.75;10.25;;;;;;;;5142224;27;21785;-80
2022/06/02 01:31:27;;;;;;;;;11.75;11.00;;;;;;;;5141984;27;22323;-79
2022/06/02 01:33:59;;;;;;;;;12.00;10.00;;;;;;;;5141819;27;11529;-80
2022/06/02 01:36:43;;;;;;;;;9.00;8.50;;;;;;;;5142192;27;10402;-80
2022/06/02 01:39:27;;;;;;;;;9.00;9.00;;;;;;;;5142125;27;22908;-79
2022/06/02 01:41:57;;;;;;;;;10.50;9.50;;;;;;;;5141389;27;9915;-79
2022/06/02 01:44:43;;;;;;;;;9.25;7.25;;;;;;;;5123224;27;23071;-79
2022/06/02 01:47:12;;;;;;;;;10.25;8.00;;;;;;;;5140964;27;22516;-81
2022/06/02 01:49:52;;;;;;;;;10.00;8.50;;;;;;;;5141052;27;22634;-80
2022/06/02 01:52:39;;;;;;;;;9.25;8.50;;;;;;;;5142167;27;9981;-80
2022/06/02 01:55:22;;;;;;;;;7.50;7.50;;;;;;;;5141346;27;16833;-80
2022/06/02 01:57:56;;;;;;;;;10.00;8.50;;;;;;;;5142205;27;10730;-80
2022/06/02 02:00:23;;;;;;;;;8.25;8.25;;;;;;;;5122837;27;22075;-81
2022/06/02 02:02:49;;;;;;;;;8.00;8.00;;;;;;;;5141372;27;23268;-80
2022/06/02 02:05:22;;;;;;;;;9.25;8.00;;;;;;;;5141928;27;10212;-81
2022/06/02 02:07:58;;;;;;;;;11.00;9.75;;;;;;;;5123520;27;9585;-80
2022/06/02 02:10:23;;;;;;;;;8.00;8.00;;;;;;;;5141357;27;22095;-80
2022/06/02 02:12:49;;;;;;;;;8.50;8.25;;;;;;;;5141135;27;21471;-80
2022/06/02 02:15:26;;;;;;;;;9.50;9.00;;;;;;;;5141964;27;8790;-81
2022/06/02 02:17:57;;;;;;;;;7.50;7.00;;;;;;;;5140903;27;12457;-81
2022/06/02 02:20:44;;;;;;;;;14.00;8.00;;;;;;;;5141468;27;10254;-81
2022/06/02 02:23:09;;;;;;;;;9.00;8.50;;;;;;;;5140799;27;22943;-81
2022/06/02 02:25:34;;;;;;;;;9.00;9.00;;;;;;;;5121612;27;21810;-81
2022/06/02 02:28:19;;;;;;;;;10.75;10.75;;;;;;;;5141364;27;8802;-81
2022/06/02 02:30:44;;;;;;;;;10.75;9.00;;;;;;;;5140769;27;22505;-80
2022/06/02 02:33:46;;;;;;;;;8.00;8.00;;;;;;;;5140771;27;16515;-80
2022/06/02 02:36:21;;;;;;;;;8.75;8.75;;;;;;;;5037088;28;21626;-80
2022/06/02 02:39:02;;;;;;;;;9.25;8.75;;;;;;;;5107619;27;10386;-81
2022/06/02 02:41:33;;;;;;;;;9.00;9.00;;;;;;;;5141594;27;10413;-80
2022/06/02 02:44:14;;;;;;;;;10.75;9.00;;;;;;;;5141633;27;12076;-79
2022/06/02 02:46:58;;;;;;;;;9.50;9.50;;;;;;;;5141294;27;16344;-79
2022/06/02 02:49:33;;;;;;;;;10.25;9.00;;;;;;;;5141272;27;21813;-78
2022/06/02 02:52:07;;;;;;;;;11.50;9.00;;;;;;;;5141242;27;21722;-78
2022/06/02 02:54:38;;;;;;;;;11.75;9.00;;;;;;;;5141584;27;10410;-78
2022/06/02 02:57:07;;;;;;;;;8.25;8.25;;;;;;;;5141448;27;10309;-78
2022/06/02 02:59:39;;;;;;;;;9.00;9.00;;;;;;;;5141416;27;21973;-78
2022/06/02 03:02:08;;;;;;;;;10.00;6.75;;;;;;;;5140377;27;11904;-79
2022/06/02 03:04:42;;;;;;;;;8.50;8.00;;;;;;;;5140680;27;23288;-79
2022/06/02 03:07:07;;;;;;;;;9.00;9.00;;;;;;;;5141434;27;21438;-78
2022/06/02 03:09:32;;;;;;;;;8.00;7.50;;;;;;;;5144667;27;10594;-80
2022/06/02 03:12:04;;;;;;;;;9.00;9.00;;;;;;;;5126241;27;11934;-80
2022/06/02 03:14:48;;;;;;;;;10.00;9.00;;;;;;;;5144611;27;12541;-81
2022/06/02 03:17:20;;;;;;;;;11.50;10.00;;;;;;;;5144147;27;16561;-81
2022/06/02 03:19:52;;;;;;;;;11.25;10.00;;;;;;;;5143177;27;23171;-80
2022/06/02 03:22:27;;;;;;;;;11.25;11.25;;;;;;;;5144538;27;10449;-81
2022/06/02 03:25:04;;;;;;;;;9.25;8.25;;;;;;;;5144299;27;10563;-80
2022/06/02 03:27:48;;;;;;;;;9.75;7.50;;;;;;;;5124652;27;24850;-80
2022/06/02 03:30:24;;;;;;;;;8.75;8.75;;;;;;;;5144413;27;10491;-80
2022/06/02 03:33:08;;;;;;;;;11.25;9.00;;;;;;;;5125023;27;13438;-81
2022/06/02 03:35:52;;;;;;;;;11.00;9.00;;;;;;;;5143512;27;21799;-81
2022/06/02 03:38:20;;;;;;;;;10.75;9.50;;;;;;;;5144555;27;10526;-81
2022/06/02 03:41:03;;;;;;;;;12.00;10.50;;;;;;;;5143394;27;10629;-81
2022/06/02 03:44:04;;;;;;;;;9.75;9.00;;;;;;;;5124499;27;22376;-81
2022/06/02 03:46:43;;;;;;;;;7.50;6.50;;;;;;;;5039818;28;22924;-81
2022/06/02 03:49:27;;;;;;;;;10.50;8.50;;;;;;;;5130913;27;11438;-81
2022/06/02 03:52:10;;;;;;;;;9.50;9.00;;;;;;;;5142799;27;22032;-79
2022/06/02 03:54:43;;;;;;;;;8.00;8.00;;;;;;;;5142836;27;21661;-78
2022/06/02 03:57:08;;;;;;;;;9.00;8.50;;;;;;;;5143834;27;10905;-80
2022/06/02 03:59:36;;;;;;;;;9.00;8.00;;;;;;;;5143552;27;12487;-80
2022/06/02 04:02:05;;;;;;;;;12.25;8.50;;;;;;;;5143965;27;8972;-78
2022/06/02 04:04:30;;;;;;;;;8.00;8.00;;;;;;;;5143329;27;22467;-79
2022/06/02 04:07:08;;;;;;;;;10.75;8.50;;;;;;;;5124904;27;21808;-78
2022/06/02 04:09:34;;;;;;;;;9.00;9.00;;;;;;;;5142787;27;21426;-79
2022/06/02 04:14:53;;;;;;;;;14.00;9.00;;;;;;;;5142991;27;22360;-78
2022/06/02 04:17:27;;;;;;;;;11.00;10.25;;;;;;;;5142392;27;22006;-79
2022/06/02 04:22:54;;;;;;;;;10.00;10.00;;;;;;;;5142889;27;11388;-79
2022/06/02 04:25:22;;;;;;;;;10.50;10.00;;;;;;;;5142710;27;10775;-79
2022/06/02 04:27:53;;;;;;;;;10.25;9.00;;;;;;;;5143332;27;10788;-79
2022/06/02 04:30:33;;;;;;;;;10.50;10.25;;;;;;;;5142019;27;21471;-79
2022/06/02 04:33:01;;;;;;;;;11.25;10.75;;;;;;;;5142463;27;21511;-79
2022/06/02 04:35:27;;;;;;;;;11.25;10.00;;;;;;;;5143401;27;10956;-79
2022/06/02 04:37:58;;;;;;;;;10.25;10.00;;;;;;;;5142537;27;11698;-79
2022/06/02 04:40:36;;;;;;;;;8.75;8.75;;;;;;;;5142486;27;8778;-79
2022/06/02 04:43:01;;;;;;;;;10.00;10.00;;;;;;;;5142885;27;22383;-79
2022/06/02 04:45:45;;;;;;;;;11.50;11.50;;;;;;;;5142118;27;22291;-79
2022/06/02 04:48:16;;;;;;;;;10.50;10.50;;;;;;;;5143035;27;12616;-79
2022/06/02 04:50:41;;;;;;;;;11.50;11.50;;;;;;;;5142234;27;11024;-79
2022/06/02 04:53:25;;;;;;;;;10.25;10.25;;;;;;;;5123805;27;11104;-78
2022/06/02 04:56:07;;;;;;;;;11.00;9.00;;;;;;;;5124308;27;14622;-79
2022/06/02 04:58:52;;;;;;;;;11.50;9.00;;;;;;;;5142013;27;21998;-77
2022/06/02 05:01:23;;;;;;;;;10.75;10.00;;;;;;;;5142620;27;10734;-79
2022/06/02 05:04:07;;;;;;;;;10.00;9.00;;;;;;;;5141696;27;21642;-77
2022/06/02 05:06:36;;;;;;;;;12.00;10.50;;;;;;;;5141745;27;21965;-78
2022/06/02 05:09:10;;;;;;;;;9.50;9.50;;;;;;;;5142718;27;22201;-78
2022/06/02 05:11:55;;;;;;;;;12.75;11.25;;;;;;;;5140454;27;22458;-80
2022/06/02 05:14:21;;;;;;;;;12.75;12.25;;;;;;;;5122257;27;25041;-80
2022/06/02 05:17:04;;;;;;;;;15.00;12.00;;;;;;;;5142898;27;10973;-78
2022/06/02 05:19:30;;;;;;;;;13.50;10.75;;;;;;;;5122578;27;13681;-78
2022/06/02 05:22:04;;;;;;;;;12.25;11.00;;;;;;;;5142222;27;11679;-80
2022/06/02 05:24:48;;;;;;;;;10.50;10.50;;;;;;;;5122799;27;13415;-80
2022/06/02 05:27:23;;;;;;;;;11.00;9.50;;;;;;;;5141791;27;12186;-81
2022/06/02 05:30:08;;;;;;;;;10.00;9.50;;;;;;;;5140858;27;21774;-80
2022/06/02 05:32:51;;;;;;;;;9.00;9.00;;;;;;;;5142269;27;10897;-80
2022/06/02 05:35:29;;;;;;;;;11.50;10.75;;;;;;;;5123743;27;23645;-79
2022/06/02 05:38:11;;;;;;;;;12.50;11.00;;;;;;;;5140962;27;22720;-80
2022/06/02 05:40:38;;;;;;;;;13.00;11.75;;;;;;;;5141386;27;11724;-79
2022/06/02 05:43:03;;;;;;;;;10.00;10.00;;;;;;;;5122682;27;11909;-79
2022/06/02 05:45:47;;;;;;;;;12.25;11.75;;;;;;;;5141121;27;13252;-78
2022/06/02 05:48:42;;;;;;;;;12.00;11.00;;;;;;;;5141372;27;11938;-75
2022/06/02 05:51:18;;;;;;;;;10.50;10.50;;;;;;;;5118880;27;10839;-76
2022/06/02 05:54:05;;;;;;;;;10.75;10.75;;;;;;;;5140968;27;11547;-75
2022/06/02 05:56:39;;;;;;;;;11.50;10.25;;;;;;;;5141746;27;10873;-79
2022/06/02 05:59:07;;;;;;;;;7.50;7.50;;;;;;;;5122830;27;12568;-85
2022/06/02 06:01:35;;;;;;;;;8.50;8.50;;;;;;;;5141688;27;22822;-82
2022/06/02 06:04:24;;;;;;;;;9.75;9.75;;;;;;;;5124678;27;11326;-83
2022/06/02 06:06:59;;;;;;;;;11.50;11.00;;;;;;;;5127375;27;11647;-79
2022/06/02 06:09:36;;;;;;;;;11.25;11.00;;;;;;;;5141357;27;22574;-74
2022/06/02 06:12:16;;;;;;;;;12.25;11.00;;;;;;;;5131321;27;10841;-86
2022/06/02 06:14:59;;;;;;;;;13.00;12.00;;;;;;;;5101616;28;10913;-81
2022/06/02 06:17:43;;;;;;;;;10.50;10.50;;;;;;;;5129237;27;10933;-79
2022/06/02 06:20:09;;;;;;;;;12.25;10.50;;;;;;;;5142065;27;11465;-79
2022/06/02 06:22:53;;;;;;;;;11.25;10.00;;;;;;;;5122304;27;11469;-78
2022/06/02 06:25:18;;;;;;;;;13.00;11.75;;;;;;;;5140609;27;11449;-80
2022/06/02 06:28:02;;;;;;;;;11.50;11.50;;;;;;;;5142043;27;11679;-79
2022/06/02 06:30:48;;;;;;;;;10.75;10.75;;;;;;;;5139759;27;11947;-79
2022/06/02 06:33:17;;;;;;;;;11.00;11.00;;;;;;;;5122424;27;12233;-78
2022/06/02 06:35:46;;;;;;;;;11.75;10.00;;;;;;;;5140526;27;11817;-83
2022/06/02 06:38:17;;;;;;;;;11.75;11.00;;;;;;;;5141288;27;11536;-85
2022/06/02 06:40:49;;;;;;;;;12.25;11.00;;;;;;;;5140368;27;10835;-82
2022/06/02 06:43:23;;;;;;;;;10.00;10.00;;;;;;;;5142028;27;10517;-79
2022/06/02 06:45:48;;;;;;;;;11.25;9.50;;;;;;;;5142056;27;10674;-77
2022/06/02 06:48:23;;;;;;;;;14.50;9.50;;;;;;;;5123828;27;24570;-76
2022/06/02 06:50:48;;;;;;;;;10.25;10.00;;;;;;;;5121313;27;11524;-77
2022/06/02 06:53:23;;;;;;;;;36.75;32.75;;;;;;;;5121946;27;21636;-76
2022/06/02 06:55:51;;;;;;;;;11.75;10.00;;;;;;;;5140568;27;13548;-75
2022/06/02 06:58:31;;;;;;;;;12.25;10.75;;;;;;;;5142009;27;13764;-77
2022/06/02 07:01:04;;;;;;;;;25.25;22.00;;;;;;;;5142465;27;11623;-77
2022/06/02 07:03:41;;;;;;;;;28.00;24.50;;;;;;;;5141962;27;13558;-78
2022/06/02 07:06:33;;;;;;;;;27.00;27.00;;;;;;;;5140395;27;11623;-81
2022/06/02 07:09:02;;;;;;;;;17.00;17.00;;;;;;;;5095825;27;11476;-81
2022/06/02 07:14:37;;;;;;;;;16.50;13.75;;;;;;;;5120845;28;13247;-80
2022/06/02 07:17:05;;;;;;;;;17.00;15.00;;;;;;;;5123188;28;12566;-80
2022/06/02 07:19:38;;;;;;;;;27.75;25.50;;;;;;;;5105194;28;13719;-80
2022/06/02 07:22:06;;;;;;;;;23.75;22.00;;;;;;;;5123026;28;13328;-78
2022/06/02 07:24:32;;;;;;;;;11.75;10.50;;;;;;;;5122644;28;11954;-78
2022/06/02 07:26:57;;;;;;;;;10.50;10.50;;;;;;;;5135670;27;15295;-79
2022/06/02 07:29:35;;;;;;;;;14.00;12.50;;;;;;;;5144069;27;9546;-82
2022/06/02 07:32:19;;;;;;;;;12.33;10.00;;;;;;;;5143400;27;10421;-79
2022/06/02 07:35:03;;;;;;;;;10.33;9.33;;;;;;;;5143739;27;12006;-79
2022/06/02 07:37:29;;;;;;;;;12.33;11.00;;;;;;;;5142706;27;22767;-79
2022/06/02 07:40:00;;;;;;;;;21.00;19.50;;;;;;;;5142497;27;22833;-86
2022/06/02 07:42:42;;;;;;;;;13.33;10.67;;;;;;;;5125611;27;15761;-77
2022/06/02 07:45:22;;;;;;;;;15.67;15.00;;;;;;;;5143793;27;13674;-79
2022/06/02 07:48:00;;;;;;;;;14.33;11.67;;;;;;;;5143198;27;11498;-77
2022/06/02 07:50:31;;;;;;;;;22.50;21.00;;;;;;;;5124832;27;13769;-77
2022/06/02 07:53:02;;;;;;;;;18.00;16.00;;;;;;;;5143181;27;13522;-75
2022/06/02 07:55:30;;;;;;;;;10.25;10.25;;;;;;;;5124217;27;15173;-73
2022/06/02 07:58:02;;;;;;;;;25.25;24.75;;;;;;;;5143546;27;11562;-79
2022/06/02 08:00:31;;;;;;;;;17.75;17.00;;;;;;;;5143260;27;12350;-79
2022/06/02 08:03:09;;;;;;;;;22.00;22.00;;;;;;;;5143339;27;13333;-79
2022/06/02 08:05:34;;;;;;;;;14.00;14.00;;;;;;;;5142845;27;14319;-79
2022/06/02 08:08:04;;;;;;;;;10.67;9.67;;;;;;;;5143437;27;10897;-82
2022/06/02 08:10:35;;;;;;;;;18.00;16.50;;;;;;;;5123372;27;24918;-83
2022/06/02 08:13:24;;;;;;;;;10.75;9.75;;;;;;;;5142444;27;21503;-80
2022/06/02 08:16:00;;;;;;;;;9.00;8.75;;;;;;;;5142231;27;21945;-89
2022/06/02 08:18:38;;;;;;;;;30.25;28.50;;;;;;;;5143031;27;21375;-83
2022/06/02 08:21:16;;;;;;;;;19.75;19.75;;;;;;;;5123636;27;24808;-83
2022/06/02 08:23:48;;;;;;;;;20.75;19.75;;;;;;;;5124440;27;14136;-83
2022/06/02 08:26:25;;;;;;;;;12.75;10.00;;;;;;;;5124976;27;10558;-83
2022/06/02 08:29:10;;;;;;;;;21.75;21.25;;;;;;;;5143872;27;13536;-84
2022/06/02 08:31:51;;;;;;;;;12.75;12.25;;;;;;;;5143811;27;13713;-82
2022/06/02 08:34:31;;;;;;;;;17.00;15.75;;;;;;;;5143384;27;11023;-84
2022/06/02 08:37:09;;;;;;;;;11.75;11.75;;;;;;;;5144841;27;10515;-88
2022/06/02 08:39:43;;;;;;;;;24.00;22.50;;;;;;;;5144775;27;10551;-87
2022/06/02 08:42:33;;;;;;;;;21.50;19.75;;;;;;;;5141294;27;13345;-85
2022/06/02 08:45:10;;;;;;;;;16.00;16.00;;;;;;;;5142483;27;12861;-85
2022/06/02 08:47:51;;;;;;;;;16.50;16.00;;;;;;;;5144289;27;14004;-91
2022/06/02 08:50:16;;;;;;;;;11.25;11.25;;;;;;;;5144535;27;8809;-94
2022/06/02 08:52:50;;;;;;;;;14.33;14.33;;;;;;;;5125066;27;13098;-90
2022/06/02 08:55:25;;;;;;;;;10.00;8.75;;;;;;;;5141448;27;10298;-85
2022/06/02 08:57:53;;;;;;;;;8.00;8.00;;;;;;;;5142005;27;22984;-91
2022/06/02 09:00:18;;;;;;;;;12.25;9.75;;;;;;;;5141314;27;23338;-89
2022/06/02 09:03:13;;;;;;;;;9.00;9.00;;;;;;;;5122959;27;21929;-90
2022/06/02 09:05:57;;;;;;;;;19.25;18.25;;;;;;;;5140848;27;21639;-87
2022/06/02 09:08:40;;;;;;;;;17.50;16.25;;;;;;;;5139038;27;22577;-94
2022/06/02 09:11:17;;;;;;;;;12.75;11.75;;;;;;;;5123332;27;12756;-87
2022/06/02 09:13:46;;;;;;;;;6.75;6.75;;;;;;;;5121195;27;12524;-90
2022/06/02 09:16:22;;;;;;;;;11.50;11.50;;;;;;;;5141159;27;22490;-84
2022/06/02 09:18:53;;;;;;;;;8.75;8.75;;;;;;;;5139033;27;22658;-82
2022/06/02 09:21:22;;;;;;;;;12.25;12.25;;;;;;;;5140851;27;22779;-85
2022/06/02 09:23:47;;;;;;;;;9.00;8.25;;;;;;;;5122166;27;25266;-80
2022/06/02 09:26:30;;;;;;;;;11.67;11.67;;;;;;;;5135159;27;22346;-81
2022/06/02 09:29:15;;;;;;;;;12.50;11.25;;;;;;;;5139593;27;22576;-81
2022/06/02 09:31:59;;;;;;;;;12.25;12.25;;;;;;;;5120048;27;12863;-80
2022/06/02 09:34:45;;;;;;;;;9.00;8.75;;;;;;;;5139037;27;10221;-83
2022/06/02 09:37:16;;;;;;;;;11.50;11.00;;;;;;;;5137285;27;22666;-80
2022/06/02 09:40:06;;;;;;;;;24.75;23.75;;;;;;;;5118320;27;24464;-76
2022/06/02 09:42:31;;;;;;;;;14.00;13.00;;;;;;;;5138645;27;13347;-79
2022/06/02 09:45:24;;;;;;;;;22.00;20.00;;;;;;;;5141776;27;13552;-81
2022/06/02 09:47:50;;;;;;;;;13.50;10.50;;;;;;;;5138336;27;10697;-80
2022/06/02 09:50:26;;;;;;;;;29.67;28.67;;;;;;;;5141896;27;13729;-86
2022/06/02 09:53:21;;;;;;;;;31.67;29.67;;;;;;;;5142234;27;14742;-89
2022/06/02 09:56:05;;;;;;;;;21.75;21.75;;;;;;;;5036876;28;10435;-81
2022/06/02 09:58:48;;;;;;;;;27.67;25.67;;;;;;;;5021837;28;13779;-82
2022/06/02 10:01:17;;;;;;;;;11.25;9.25;;;;;;;;5021262;28;12162;-81
2022/06/02 10:03:49;;;;;;;;;31.33;27.33;;;;;;;;5021004;28;23059;-84
2022/06/02 10:06:23;;;;;;;;;21.00;20.00;;;;;;;;5059628;28;23096;-87
2022/06/02 10:08:58;;;;;;;;;6.75;6.75;;;;;;;;5140828;28;13826;-83
2022/06/02 10:11:42;;;;;;;;;10.25;9.00;;;;;;;;5139659;28;23289;-78
2022/06/02 10:14:36;;;;;;;;;10.25;7.75;;;;;;;;5124997;28;21425;-83
2022/06/02 10:17:21;;;;;;;;;10.75;7.75;;;;;;;;5103276;28;9629;-80
2022/06/02 10:19:46;;;;;;;;;12.25;12.25;;;;;;;;5120427;28;8891;-82
2022/06/02 10:22:41;;;;;;;;;27.67;26.00;;;;;;;;5102264;28;23382;-79
2022/06/02 10:25:25;;;;;;;;;25.67;23.33;;;;;;;;5091548;27;13633;-83
2022/06/02 10:28:09;;;;;;;;;6.25;6.25;;;;;;;;5122541;27;11855;-79
2022/06/02 10:30:47;;;;;;;;;16.00;14.25;;;;;;;;5122292;27;22990;-78
2022/06/02 10:33:12;;;;;;;;;11.00;9.00;;;;;;;;5121320;27;22549;-78
2022/06/02 10:35:56;;;;;;;;;6.00;6.00;;;;;;;;5140708;27;21420;-79
2022/06/02 10:38:40;;;;;;;;;8.50;8.50;;;;;;;;5121752;27;23579;-80
2022/06/02 10:41:05;;;;;;;;;8.25;8.25;;;;;;;;5141262;27;11545;-78
2022/06/02 10:43:43;;;;;;;;;10.67;10.67;;;;;;;;5122400;27;10565;-77
2022/06/02 10:46:27;;;;;;;;;6.75;6.75;;;;;;;;5140545;27;22575;-77
2022/06/02 10:48:59;;;;;;;;;12.00;9.00;;;;;;;;5137448;27;22505;-77
2022/06/02 10:51:27;;;;;;;;;23.25;22.25;;;;;;;;5140762;27;23316;-75
2022/06/02 10:54:11;;;;;;;;;7.00;7.00;;;;;;;;5121129;27;24584;-75
2022/06/02 10:56:37;;;;;;;;;20.00;18.00;;;;;;;;5138963;27;22511;-75
2022/06/02 10:59:11;;;;;;;;;22.00;21.67;;;;;;;;5120828;27;23267;-77
2022/06/02 11:01:42;;;;;;;;;18.50;13.25;;;;;;;;5121366;27;14817;-77
2022/06/02 11:04:13;;;;;;;;;9.25;7.50;;;;;;;;5120940;27;15823;-75
2022/06/02 11:06:50;;;;;;;;;10.25;10.25;;;;;;;;5120763;27;25431;-77
2022/06/02 11:09:18;;;;;;;;;10.00;9.00;;;;;;;;5140235;27;22474;-78
2022/06/02 11:12:02;;;;;;;;;17.33;16.00;;;;;;;;5139077;27;21554;-77
2022/06/02 11:14:39;;;;;;;;;14.50;12.00;;;;;;;;5139734;27;21725;-77
2022/06/02 11:17:07;;;;;;;;;17.25;13.75;;;;;;;;5140414;27;12269;-82
2022/06/02 11:19:51;;;;;;;;;30.00;23.50;;;;;;;;5139805;27;11575;-80
2022/06/02 11:22:22;;;;;;;;;17.00;17.00;;;;;;;;5121696;27;16004;-83
2022/06/02 11:24:51;;;;;;;;;21.50;20.00;;;;;;;;5139848;27;13645;-75
2022/06/02 11:27:29;;;;;;;;;22.33;18.33;;;;;;;;5140170;27;12275;-77
2022/06/02 11:30:06;;;;;;;;;16.00;16.00;;;;;;;;5143454;27;12565;-76
2022/06/02 11:32:50;;;;;;;;;9.00;9.00;;;;;;;;5121098;27;13854;-76
2022/06/02 11:35:34;;;;;;;;;7.75;7.75;;;;;;;;5142205;27;22818;-78
2022/06/02 11:37:59;;;;;;;;;18.00;16.00;;;;;;;;5142360;27;11701;-77
2022/06/02 11:40:25;;;;;;;;;11.00;9.67;;;;;;;;5142957;27;22205;-78
2022/06/02 11:43:10;;;;;;;;;10.33;9.33;;;;;;;;5142847;27;22142;-81
2022/06/02 11:45:54;;;;;;;;;23.00;21.00;;;;;;;;5140661;27;10640;-77
2022/06/02 11:48:38;;;;;;;;;17.67;16.00;;;;;;;;5141594;27;22589;-80
2022/06/02 11:51:03;;;;;;;;;20.00;20.00;;;;;;;;5140792;27;14124;-76
2022/06/02 11:53:43;;;;;;;;;8.00;8.00;;;;;;;;5140022;27;12259;-75
2022/06/02 11:56:32;;;;;;;;;9.00;9.00;;;;;;;;5121600;27;23039;-76
2022/06/02 11:59:00;;;;;;;;;8.75;7.75;;;;;;;;5122242;27;10285;-75
2022/06/02 12:01:44;;;;;;;;;12.25;12.25;;;;;;;;5141645;27;11571;-79
2022/06/02 12:04:28;;;;;;;;;8.50;8.50;;;;;;;;5119724;27;24125;-77
2022/06/02 12:07:19;;;;;;;;;11.50;11.50;;;;;;;;5119966;27;25593;-80
2022/06/02 12:09:48;;;;;;;;;11.00;10.00;;;;;;;;5122345;28;23015;-78
2022/06/02 12:12:51;;;;;;;;;23.33;20.33;;;;;;;;5141502;27;10635;-78
2022/06/02 12:15:23;;;;;;;;;14.75;12.25;;;;;;;;5037247;28;13377;-81
2022/06/02 12:18:02;;;;;;;;;26.67;25.00;;;;;;;;5020088;28;11809;-81
2022/06/02 12:20:39;;;;;;;;;11.50;11.50;;;;;;;;5035248;28;13780;-77
2022/06/02 12:23:17;;;;;;;;;11.00;9.25;;;;;;;;5015163;28;15961;-83
2022/06/02 12:25:58;;;;;;;;;24.67;24.67;;;;;;;;5019614;28;22177;-81
2022/06/02 12:28:36;;;;;;;;;26.50;24.00;;;;;;;;5019281;28;22616;-85
2022/06/02 12:31:20;;;;;;;;;23.50;21.00;;;;;;;;5020021;28;11555;-76
2022/06/02 12:33:54;;;;;;;;;25.33;20.67;;;;;;;;5035618;28;9491;-82
2022/06/02 12:36:19;;;;;;;;;26.50;25.25;;;;;;;;5034714;28;12874;-78
2022/06/02 12:38:47;;;;;;;;;14.67;12.00;;;;;;;;5037027;28;11396;-78
2022/06/02 12:41:30;;;;;;;;;10.50;10.00;;;;;;;;5037755;28;13392;-79
2022/06/02 12:44:14;;;;;;;;;9.00;7.00;;;;;;;;5037432;28;10663;-80
2022/06/02 12:46:40;;;;;;;;;23.00;22.00;;;;;;;;5099288;27;23506;-78
2022/06/02 12:49:23;;;;;;;;;25.00;23.00;;;;;;;;5137941;27;22787;-81
2022/06/02 12:52:07;;;;;;;;;12.00;9.25;;;;;;;;5138217;27;8905;-80
2022/06/02 12:54:51;;;;;;;;;15.33;12.67;;;;;;;;5141610;27;22800;-83
2022/06/02 12:57:22;;;;;;;;;6.00;6.00;;;;;;;;5140477;27;21627;-81
2022/06/02 13:00:05;;;;;;;;;9.75;9.75;;;;;;;;5141874;27;23592;-81
2022/06/02 13:02:46;;;;;;;;;9.25;9.25;;;;;;;;5140240;27;11905;-78
2022/06/02 13:05:17;;;;;;;;;8.25;7.00;;;;;;;;5139214;27;8786;-80
2022/06/02 13:08:08;;;;;;;;;7.25;6.00;;;;;;;;5139912;27;11438;-81
2022/06/02 13:10:41;;;;;;;;;9.00;7.75;;;;;;;;5100473;27;9849;-79
2022/06/02 13:13:06;;;;;;;;;6.50;6.00;;;;;;;;5139886;27;11725;-82
2022/06/02 13:15:46;;;;;;;;;7.00;7.00;;;;;;;;5139273;27;11463;-82
2022/06/02 13:18:26;;;;;;;;;10.75;9.50;;;;;;;;5138335;27;11565;-80
2022/06/02 13:21:10;;;;;;;;;5.25;5.25;;;;;;;;5136541;27;22017;-84
2022/06/02 13:23:38;;;;;;;;;10.75;10.00;;;;;;;;5137252;27;22879;-86
2022/06/02 14:31:37;;;;;;;;;6.67;5.00;;;;;;;;5176593;27;76518;-79
2022/06/02 14:34:03;;;;;;;;;7.33;6.00;;;;;;;;5156866;27;23033;-78
2022/06/02 14:36:37;;;;;;;;;6.00;4.67;;;;;;;;5158739;27;10337;-76
2022/06/02 14:39:09;;;;;;;;;7.50;6.25;;;;;;;;5158783;27;12964;-78
2022/06/02 14:41:40;;;;;;;;;7.75;7.75;;;;;;;;5158772;27;11417;-81
2022/06/02 14:44:18;;;;;;;;;7.00;7.00;;;;;;;;5157798;27;9827;-80
2022/06/02 14:46:43;;;;;;;;;6.75;6.50;;;;;;;;5155898;27;11740;-85
2022/06/02 14:49:37;;;;;;;;;10.33;8.00;;;;;;;;5159000;27;11819;-83
2022/06/02 14:52:22;;;;;;;;;6.00;6.00;;;;;;;;5083849;27;21995;-79
2022/06/02 14:54:55;;;;;;;;;9.50;7.75;;;;;;;;5158099;27;21644;-79
2022/06/02 14:57:46;;;;;;;;;6.00;6.00;;;;;;;;5158648;27;11394;-81
2022/06/02 15:00:13;;;;;;;;;7.75;7.00;;;;;;;;5133611;27;11829;-86
2022/06/02 15:02:57;;;;;;;;;6.75;6.00;;;;;;;;5157139;27;10367;-86
2022/06/02 15:05:23;;;;;;;;;9.50;9.50;;;;;;;;5157865;27;8915;-86
2022/06/02 15:08:07;;;;;;;;;8.33;8.00;;;;;;;;5157361;27;11286;-87
2022/06/02 15:10:32;;;;;;;;;7.25;6.50;;;;;;;;5158668;27;11366;-82
2022/06/02 15:12:57;;;;;;;;;7.33;7.00;;;;;;;;5158704;27;11364;-82
2022/06/02 15:15:42;;;;;;;;;8.67;6.33;;;;;;;;5159079;27;8826;-84
2022/06/02 15:18:10;;;;;;;;;7.25;6.75;;;;;;;;5159120;27;11902;-83
2022/06/02 15:20:39;;;;;;;;;7.50;7.00;;;;;;;;5156951;27;12453;-82
2022/06/02 15:23:10;;;;;;;;;5.50;5.50;;;;;;;;5156954;27;10543;-83
2022/06/02 15:25:49;;;;;;;;;6.25;6.25;;;;;;;;5158238;27;11461;-82
2022/06/02 15:28:33;;;;;;;;;8.25;7.25;;;;;;;;5156699;27;13557;-81
2022/06/02 15:30:58;;;;;;;;;8.00;7.00;;;;;;;;5158352;27;8889;-81
2022/06/02 15:33:32;;;;;;;;;8.67;8.67;;;;;;;;5157177;27;10679;-82
2022/06/02 15:36:01;;;;;;;;;7.50;7.50;;;;;;;;5157017;27;12357;-83
2022/06/02 15:38:35;;;;;;;;;8.00;8.00;;;;;;;;5155943;27;12050;-84
2022/06/02 15:41:19;;;;;;;;;8.50;8.50;;;;;;;;5153489;27;12325;-84
2022/06/02 15:44:07;;;;;;;;;7.75;7.75;;;;;;;;5143868;27;8771;-83
2022/06/02 15:46:51;;;;;;;;;9.00;8.00;;;;;;;;5114492;27;11425;-80
2022/06/02 15:49:29;;;;;;;;;10.50;10.50;;;;;;;;5143574;27;11705;-79
2022/06/02 15:52:04;;;;;;;;;6.50;6.25;;;;;;;;5141730;27;24539;-81
2022/06/02 15:54:57;;;;;;;;;8.50;8.50;;;;;;;;5143740;27;22264;-80
2022/06/02 15:57:28;;;;;;;;;9.00;8.75;;;;;;;;5143180;27;11389;-80
2022/06/02 16:00:03;;;;;;;;;9.00;7.75;;;;;;;;5144586;27;12606;-80
2022/06/02 16:02:32;;;;;;;;;8.50;7.50;;;;;;;;5144844;27;8772;-80
2022/06/02 16:04:57;;;;;;;;;8.50;6.25;;;;;;;;5143280;27;11373;-79
2022/06/02 16:07:58;;;;;;;;;7.33;7.33;;;;;;;;5141599;27;9214;-80
2022/06/02 16:13:25;;;;;;;;;9.25;8.25;;;;;;;;5136924;27;10260;-82
2022/06/02 16:15:56;;;;;;;;;10.00;8.25;;;;;;;;5143797;27;8780;-83
2022/06/02 16:18:21;;;;;;;;;9.75;8.75;;;;;;;;5142745;27;16316;-81
2022/06/02 16:20:50;;;;;;;;;10.33;9.00;;;;;;;;5142988;27;22460;-82
2022/06/02 16:23:18;;;;;;;;;9.00;7.25;;;;;;;;5143396;27;21455;-81
2022/06/02 16:26:02;;;;;;;;;10.00;9.25;;;;;;;;5143043;27;21683;-80
2022/06/02 16:28:41;;;;;;;;;14.00;11.00;;;;;;;;5142850;27;22228;-77
2022/06/02 16:31:07;;;;;;;;;14.00;13.75;;;;;;;;5142075;27;22583;-78
2022/06/02 16:33:32;;;;;;;;;7.00;7.00;;;;;;;;5142480;27;9507;-78
2022/06/02 16:36:00;;;;;;;;;7.67;7.67;;;;;;;;5142972;27;22151;-77
2022/06/02 16:38:38;;;;;;;;;13.00;11.50;;;;;;;;5142530;27;8813;-79
2022/06/02 16:41:22;;;;;;;;;19.75;17.50;;;;;;;;5142202;27;22984;-79
2022/06/02 16:43:55;;;;;;;;;15.25;15.25;;;;;;;;5142958;27;10424;-79